This is the latest recevied weather packets stored in our database for station/object KF6YUA. If no packets are shown the sender has not sent any weather packets the latest 10 day(s).
| Time | Temp. | Humidity | Pressure | Rain* | Wind** | Luminosity | Snow |
|---|---|---|---|---|---|---|---|
| 1777427165 | 18.33° C | 60% | 1020.2 hPa | 0 mm | - | 26 W/m² | - |
| 1777426863 | 18.33° C | 60% | 1020.3 hPa | 0 mm | - | 27 W/m² | - |
| 1777426560 | 18.89° C | 59% | 1020.1 hPa | 0 mm | - | 28 W/m² | - |
| 1777426256 | 19.44° C | 57% | 1020.3 hPa | 0 mm | - | 32 W/m² | - |
| 1777425951 | 20° C | 54% | 1020 hPa | 0 mm | - | 39 W/m² | - |
| 1777425646 | 20° C | 54% | 1020.2 hPa | 0 mm | - | 108 W/m² | - |
| 1777425342 | 20.56° C | 52% | 1020 hPa | 0 mm | - | 91 W/m² | - |
| 1777425039 | 20.56° C | 54% | 1020.2 hPa | 0 mm | - | 89 W/m² | - |
| 1777424735 | 20.56° C | 53% | 1020.1 hPa | 0 mm | - | 132 W/m² | - |
| 1777424430 | 20.56° C | 52% | 1020.1 hPa | 0 mm | - | 119 W/m² | - |
| 1777424126 | 20.56° C | 54% | 1020.2 hPa | 0 mm | - | 122 W/m² | - |
| 1777423824 | 21.11° C | 53% | 1020.1 hPa | 0 mm | - | 157 W/m² | - |
| 1777423520 | 20.56° C | 52% | 1020.2 hPa | 0 mm | - | 186 W/m² | - |
| 1777423215 | 20° C | 53% | 1020.3 hPa | 0 mm | - | 219 W/m² | - |
| 1777422908 | 20° C | 52% | 1020.3 hPa | 0 mm | - | 226 W/m² | - |
| 1777422605 | 20.56° C | 51% | 1020.2 hPa | 0 mm | - | 223 W/m² | - |
| 1777422301 | 20.56° C | 53% | 1020.1 hPa | 0 mm | - | 226 W/m² | - |
| 1777421995 | 20.56° C | 52% | 1020.2 hPa | 0 mm | - | 253 W/m² | - |
| 1777421690 | 21.11° C | 52% | 1019.8 hPa | 0 mm | - | 279 W/m² | - |
| 1777421385 | 20.56° C | 52% | 1020.1 hPa | 0 mm | - | 302 W/m² | - |
| 1777421082 | 20° C | 53% | 1020.2 hPa | 0 mm | - | 321 W/m² | - |
| 1777420778 | 20.56° C | 51% | 1020.2 hPa | 0 mm | - | 317 W/m² | - |
| 1777420474 | 20.56° C | 51% | 1020.4 hPa | 0 mm | - | 357 W/m² | - |
| 1777420172 | 21.11° C | 51% | 1020.4 hPa | 0 mm | - | 344 W/m² | - |
| 1777419867 | 20.56° C | 53% | 1020.3 hPa | 0 mm | - | 412 W/m² | - |
* Rain latest hour (hover to see other rain measurements)
** Current wind speed in m/s (hover to see current wind gust speed)